sensor_id;sensor_type;location;lat;lon;timestamp;P1;durP1;ratioP1;P2;durP2;ratioP2
21168;SDS011;10742;51.816;8.662;2022-09-16T00:00:50;180.83;;;57.10;;
21168;SDS011;10742;51.816;8.662;2022-09-16T00:03:54;182.23;;;68.40;;
21168;SDS011;10742;51.816;8.662;2022-09-16T00:06:57;206.33;;;84.43;;
21168;SDS011;10742;51.816;8.662;2022-09-16T00:09:59;201.93;;;64.40;;
21168;SDS011;10742;51.816;8.662;2022-09-16T00:13:03;322.87;;;107.30;;
21168;SDS011;10742;51.816;8.662;2022-09-16T00:16:06;359.50;;;118.33;;
21168;SDS011;10742;51.816;8.662;2022-09-16T00:19:11;212.93;;;85.67;;
21168;SDS011;10742;51.816;8.662;2022-09-16T00:22:13;365.70;;;130.87;;
21168;SDS011;10742;51.816;8.662;2022-09-16T00:25:16;300.87;;;114.33;;
21168;SDS011;10742;51.816;8.662;2022-09-16T00:28:19;299.23;;;115.10;;
21168;SDS011;10742;51.816;8.662;2022-09-16T00:31:23;298.47;;;108.47;;
21168;SDS011;10742;51.816;8.662;2022-09-16T00:34:26;311.03;;;103.73;;
21168;SDS011;10742;51.816;8.662;2022-09-16T00:37:31;253.93;;;80.97;;
21168;SDS011;10742;51.816;8.662;2022-09-16T00:40:34;300.87;;;111.63;;
21168;SDS011;10742;51.816;8.662;2022-09-16T00:46:52;381.03;;;120.60;;
21168;SDS011;10742;51.816;8.662;2022-09-16T00:49:58;327.20;;;110.20;;
21168;SDS011;10742;51.816;8.662;2022-09-16T00:53:04;252.17;;;85.47;;
21168;SDS011;10742;51.816;8.662;2022-09-16T00:56:12;182.40;;;68.93;;
21168;SDS011;10742;51.816;8.662;2022-09-16T00:59:19;273.53;;;90.43;;
21168;SDS011;10742;51.816;8.662;2022-09-16T01:02:27;210.67;;;77.73;;
21168;SDS011;10742;51.816;8.662;2022-09-16T01:05:30;238.33;;;80.63;;
21168;SDS011;10742;51.816;8.662;2022-09-16T01:08:32;240.40;;;84.47;;
21168;SDS011;10742;51.816;8.662;2022-09-16T01:11:34;199.20;;;69.97;;
21168;SDS011;10742;51.816;8.662;2022-09-16T01:14:37;179.10;;;69.53;;
21168;SDS011;10742;51.816;8.662;2022-09-16T01:18:09;155.53;;;60.50;;
21168;SDS011;10742;51.816;8.662;2022-09-16T01:21:29;148.70;;;52.23;;
21168;SDS011;10742;51.816;8.662;2022-09-16T01:28:43;134.80;;;40.50;;
21168;SDS011;10742;51.816;8.662;2022-09-16T01:42:35;75.90;;;27.43;;
21168;SDS011;10742;51.816;8.662;2022-09-16T01:45:42;113.50;;;46.30;;
21168;SDS011;10742;51.816;8.662;2022-09-16T01:49:13;174.33;;;69.00;;
21168;SDS011;10742;51.816;8.662;2022-09-16T01:59:07;327.17;;;113.90;;
21168;SDS011;10742;51.816;8.662;2022-09-16T02:02:20;401.07;;;142.20;;
21168;SDS011;10742;51.816;8.662;2022-09-16T02:05:33;472.63;;;146.73;;
21168;SDS011;10742;51.816;8.662;2022-09-16T02:09:03;237.57;;;91.33;;
21168;SDS011;10742;51.816;8.662;2022-09-16T02:12:15;490.07;;;144.43;;
21168;SDS011;10742;51.816;8.662;2022-09-16T02:15:23;260.57;;;95.10;;
21168;SDS011;10742;51.816;8.662;2022-09-16T02:18:28;330.03;;;106.37;;
21168;SDS011;10742;51.816;8.662;2022-09-16T02:21:36;407.37;;;134.73;;
21168;SDS011;10742;51.816;8.662;2022-09-16T02:24:44;345.30;;;114.80;;
21168;SDS011;10742;51.816;8.662;2022-09-16T02:27:48;351.73;;;108.37;;
21168;SDS011;10742;51.816;8.662;2022-09-16T02:30:53;293.80;;;105.90;;
21168;SDS011;10742;51.816;8.662;2022-09-16T02:34:06;325.20;;;92.47;;
21168;SDS011;10742;51.816;8.662;2022-09-16T02:37:14;207.00;;;73.70;;
21168;SDS011;10742;51.816;8.662;2022-09-16T02:40:30;216.97;;;81.33;;
21168;SDS011;10742;51.816;8.662;2022-09-16T02:43:42;231.63;;;81.23;;
21168;SDS011;10742;51.816;8.662;2022-09-16T02:53:51;173.47;;;62.97;;
21168;SDS011;10742;51.816;8.662;2022-09-16T02:56:57;174.50;;;65.07;;
21168;SDS011;10742;51.816;8.662;2022-09-16T03:00:01;151.67;;;59.83;;
21168;SDS011;10742;51.816;8.662;2022-09-16T03:03:05;193.97;;;74.37;;
21168;SDS011;10742;51.816;8.662;2022-09-16T03:06:20;175.40;;;67.67;;
21168;SDS011;10742;51.816;8.662;2022-09-16T03:09:25;188.33;;;71.10;;
21168;SDS011;10742;51.816;8.662;2022-09-16T03:12:53;208.57;;;82.70;;
21168;SDS011;10742;51.816;8.662;2022-09-16T03:16:11;144.37;;;55.87;;
21168;SDS011;10742;51.816;8.662;2022-09-16T03:19:25;189.00;;;74.57;;
21168;SDS011;10742;51.816;8.662;2022-09-16T03:22:54;164.03;;;62.47;;
21168;SDS011;10742;51.816;8.662;2022-09-16T03:26:10;189.27;;;71.30;;
21168;SDS011;10742;51.816;8.662;2022-09-16T03:29:36;693.70;;;212.83;;
21168;SDS011;10742;51.816;8.662;2022-09-16T03:32:52;658.47;;;204.27;;
21168;SDS011;10742;51.816;8.662;2022-09-16T03:35:58;953.93;;;260.73;;
21168;SDS011;10742;51.816;8.662;2022-09-16T03:39:05;1018.47;;;270.83;;
21168;SDS011;10742;51.816;8.662;2022-09-16T03:42:09;835.90;;;250.43;;
21168;SDS011;10742;51.816;8.662;2022-09-16T03:45:20;995.83;;;261.40;;
21168;SDS011;10742;51.816;8.662;2022-09-16T03:48:23;989.07;;;281.17;;
21168;SDS011;10742;51.816;8.662;2022-09-16T03:51:26;701.20;;;213.30;;
21168;SDS011;10742;51.816;8.662;2022-09-16T03:54:30;991.83;;;277.27;;
21168;SDS011;10742;51.816;8.662;2022-09-16T03:57:33;1025.23;;;271.87;;
21168;SDS011;10742;51.816;8.662;2022-09-16T04:00:35;846.70;;;242.03;;
21168;SDS011;10742;51.816;8.662;2022-09-16T04:03:38;1037.90;;;277.37;;
21168;SDS011;10742;51.816;8.662;2022-09-16T04:06:40;1031.93;;;287.20;;
21168;SDS011;10742;51.816;8.662;2022-09-16T04:09:44;1081.10;;;270.40;;
21168;SDS011;10742;51.816;8.662;2022-09-16T04:12:46;890.27;;;248.87;;
21168;SDS011;10742;51.816;8.662;2022-09-16T04:15:48;938.90;;;264.00;;
21168;SDS011;10742;51.816;8.662;2022-09-16T04:18:51;795.93;;;226.87;;
21168;SDS011;10742;51.816;8.662;2022-09-16T04:21:53;677.90;;;221.83;;
21168;SDS011;10742;51.816;8.662;2022-09-16T04:24:56;743.63;;;207.73;;
21168;SDS011;10742;51.816;8.662;2022-09-16T04:27:58;1177.03;;;304.87;;
21168;SDS011;10742;51.816;8.662;2022-09-16T04:31:05;1246.20;;;323.57;;
21168;SDS011;10742;51.816;8.662;2022-09-16T04:34:10;1677.60;;;377.23;;
21168;SDS011;10742;51.816;8.662;2022-09-16T04:37:14;1272.20;;;305.10;;
21168;SDS011;10742;51.816;8.662;2022-09-16T04:40:17;979.30;;;274.07;;
21168;SDS011;10742;51.816;8.662;2022-09-16T04:43:19;922.43;;;257.87;;
21168;SDS011;10742;51.816;8.662;2022-09-16T04:46:23;1201.77;;;307.60;;
21168;SDS011;10742;51.816;8.662;2022-09-16T04:49:30;1133.73;;;293.93;;
21168;SDS011;10742;51.816;8.662;2022-09-16T04:52:33;1312.73;;;327.77;;
21168;SDS011;10742;51.816;8.662;2022-09-16T04:55:37;1656.20;;;393.20;;
21168;SDS011;10742;51.816;8.662;2022-09-16T04:58:39;1308.97;;;326.60;;
21168;SDS011;10742;51.816;8.662;2022-09-16T05:01:46;1248.20;;;326.07;;
21168;SDS011;10742;51.816;8.662;2022-09-16T05:04:48;1487.60;;;341.00;;
21168;SDS011;10742;51.816;8.662;2022-09-16T05:07:51;1233.90;;;312.20;;
21168;SDS011;10742;51.816;8.662;2022-09-16T05:10:53;1433.50;;;345.23;;
21168;SDS011;10742;51.816;8.662;2022-09-16T05:13:59;1246.73;;;318.83;;
21168;SDS011;10742;51.816;8.662;2022-09-16T05:17:03;1240.37;;;317.33;;
21168;SDS011;10742;51.816;8.662;2022-09-16T05:20:06;1331.23;;;328.83;;
21168;SDS011;10742;51.816;8.662;2022-09-16T05:23:27;1450.97;;;358.33;;
21168;SDS011;10742;51.816;8.662;2022-09-16T05:26:48;1257.83;;;333.83;;
21168;SDS011;10742;51.816;8.662;2022-09-16T05:30:09;1614.30;;;397.20;;
21168;SDS011;10742;51.816;8.662;2022-09-16T05:33:12;1569.77;;;394.57;;
21168;SDS011;10742;51.816;8.662;2022-09-16T05:36:15;1994.77;;;483.83;;
21168;SDS011;10742;51.816;8.662;2022-09-16T05:39:18;1999.90;;;543.97;;
21168;SDS011;10742;51.816;8.662;2022-09-16T05:42:23;1999.90;;;503.70;;
21168;SDS011;10742;51.816;8.662;2022-09-16T05:45:25;1820.33;;;424.30;;
21168;SDS011;10742;51.816;8.662;2022-09-16T05:48:30;1962.10;;;482.40;;
21168;SDS011;10742;51.816;8.662;2022-09-16T05:51:33;1992.43;;;482.83;;
21168;SDS011;10742;51.816;8.662;2022-09-16T05:54:38;1999.90;;;590.03;;
21168;SDS011;10742;51.816;8.662;2022-09-16T05:57:40;1999.90;;;580.20;;
21168;SDS011;10742;51.816;8.662;2022-09-16T06:00:42;1889.30;;;452.47;;
21168;SDS011;10742;51.816;8.662;2022-09-16T06:03:45;1095.37;;;295.00;;
21168;SDS011;10742;51.816;8.662;2022-09-16T06:06:49;1083.77;;;291.63;;
21168;SDS011;10742;51.816;8.662;2022-09-16T06:09:51;1835.47;;;415.80;;
21168;SDS011;10742;51.816;8.662;2022-09-16T06:12:54;1243.60;;;346.60;;
21168;SDS011;10742;51.816;8.662;2022-09-16T06:15:56;883.73;;;247.13;;
21168;SDS011;10742;51.816;8.662;2022-09-16T06:19:00;668.50;;;207.93;;
21168;SDS011;10742;51.816;8.662;2022-09-16T06:22:03;501.70;;;170.93;;
21168;SDS011;10742;51.816;8.662;2022-09-16T06:25:06;227.83;;;75.10;;
21168;SDS011;10742;51.816;8.662;2022-09-16T06:28:09;204.90;;;83.50;;
21168;SDS011;10742;51.816;8.662;2022-09-16T06:31:13;254.33;;;87.83;;
21168;SDS011;10742;51.816;8.662;2022-09-16T06:34:17;102.07;;;36.93;;
21168;SDS011;10742;51.816;8.662;2022-09-16T06:37:21;45.77;;;22.70;;
21168;SDS011;10742;51.816;8.662;2022-09-16T06:40:24;138.27;;;45.60;;
21168;SDS011;10742;51.816;8.662;2022-09-16T06:43:26;71.90;;;24.97;;
21168;SDS011;10742;51.816;8.662;2022-09-16T06:46:30;87.43;;;27.03;;
21168;SDS011;10742;51.816;8.662;2022-09-16T06:49:34;19.47;;;10.27;;
21168;SDS011;10742;51.816;8.662;2022-09-16T06:52:36;57.20;;;23.23;;
21168;SDS011;10742;51.816;8.662;2022-09-16T06:55:40;22.00;;;10.30;;
21168;SDS011;10742;51.816;8.662;2022-09-16T06:58:45;44.33;;;18.87;;
21168;SDS011;10742;51.816;8.662;2022-09-16T07:01:48;27.77;;;11.40;;
21168;SDS011;10742;51.816;8.662;2022-09-16T07:04:52;13.80;;;6.57;;
21168;SDS011;10742;51.816;8.662;2022-09-16T07:07:56;10.47;;;4.83;;
21168;SDS011;10742;51.816;8.662;2022-09-16T07:11:01;28.80;;;12.47;;
21168;SDS011;10742;51.816;8.662;2022-09-16T07:14:07;8.37;;;4.77;;
21168;SDS011;10742;51.816;8.662;2022-09-16T07:17:10;11.10;;;4.63;;
21168;SDS011;10742;51.816;8.662;2022-09-16T07:20:14;10.27;;;5.33;;
21168;SDS011;10742;51.816;8.662;2022-09-16T07:23:16;12.00;;;4.90;;
21168;SDS011;10742;51.816;8.662;2022-09-16T07:26:21;6.27;;;2.97;;
21168;SDS011;10742;51.816;8.662;2022-09-16T07:29:28;6.33;;;2.97;;
21168;SDS011;10742;51.816;8.662;2022-09-16T07:32:31;6.17;;;2.80;;
21168;SDS011;10742;51.816;8.662;2022-09-16T07:35:34;4.30;;;2.77;;
21168;SDS011;10742;51.816;8.662;2022-09-16T07:38:36;7.20;;;2.70;;
21168;SDS011;10742;51.816;8.662;2022-09-16T07:41:41;5.90;;;2.77;;
21168;SDS011;10742;51.816;8.662;2022-09-16T07:44:45;5.27;;;2.80;;
21168;SDS011;10742;51.816;8.662;2022-09-16T07:47:49;7.37;;;2.90;;
21168;SDS011;10742;51.816;8.662;2022-09-16T07:50:54;3.57;;;2.60;;
21168;SDS011;10742;51.816;8.662;2022-09-16T07:54:08;7.87;;;2.37;;
21168;SDS011;10742;51.816;8.662;2022-09-16T07:57:12;5.50;;;2.60;;
21168;SDS011;10742;51.816;8.662;2022-09-16T08:00:16;2.97;;;2.20;;
21168;SDS011;10742;51.816;8.662;2022-09-16T08:03:19;3.37;;;2.37;;
21168;SDS011;10742;51.816;8.662;2022-09-16T08:06:24;3.70;;;2.47;;
21168;SDS011;10742;51.816;8.662;2022-09-16T08:09:28;6.43;;;2.60;;
21168;SDS011;10742;51.816;8.662;2022-09-16T08:12:39;10.00;;;1.97;;
21168;SDS011;10742;51.816;8.662;2022-09-16T08:15:41;7.50;;;2.30;;
21168;SDS011;10742;51.816;8.662;2022-09-16T08:18:44;7.33;;;2.10;;
21168;SDS011;10742;51.816;8.662;2022-09-16T08:21:48;2.37;;;1.80;;
21168;SDS011;10742;51.816;8.662;2022-09-16T08:24:51;3.53;;;2.13;;
21168;SDS011;10742;51.816;8.662;2022-09-16T08:27:53;7.47;;;1.90;;
21168;SDS011;10742;51.816;8.662;2022-09-16T08:30:59;5.93;;;2.00;;
21168;SDS011;10742;51.816;8.662;2022-09-16T08:34:02;10.60;;;2.20;;
21168;SDS011;10742;51.816;8.662;2022-09-16T08:37:05;4.57;;;1.93;;
21168;SDS011;10742;51.816;8.662;2022-09-16T08:40:13;6.00;;;2.43;;
21168;SDS011;10742;51.816;8.662;2022-09-16T08:44:19;3.60;;;2.03;;
21168;SDS011;10742;51.816;8.662;2022-09-16T08:47:21;3.67;;;2.10;;
21168;SDS011;10742;51.816;8.662;2022-09-16T08:50:40;4.63;;;2.23;;
21168;SDS011;10742;51.816;8.662;2022-09-16T08:53:53;3.97;;;2.30;;
21168;SDS011;10742;51.816;8.662;2022-09-16T08:57:01;4.07;;;2.20;;
21168;SDS011;10742;51.816;8.662;2022-09-16T09:00:11;5.60;;;2.57;;
21168;SDS011;10742;51.816;8.662;2022-09-16T09:13:37;3.60;;;2.13;;
21168;SDS011;10742;51.816;8.662;2022-09-16T09:16:45;5.23;;;1.90;;
21168;SDS011;10742;51.816;8.662;2022-09-16T09:23:38;4.07;;;2.00;;
21168;SDS011;10742;51.816;8.662;2022-09-16T09:30:24;8.82;;;2.17;;
21168;SDS011;10742;51.816;8.662;2022-09-16T09:33:31;5.97;;;1.90;;
21168;SDS011;10742;51.816;8.662;2022-09-16T09:37:02;4.55;;;1.80;;
21168;SDS011;10742;51.816;8.662;2022-09-16T09:43:35;4.30;;;1.23;;
21168;SDS011;10742;51.816;8.662;2022-09-16T09:46:57;5.10;;;1.25;;
21168;SDS011;10742;51.816;8.662;2022-09-16T09:50:12;7.00;;;1.63;;
21168;SDS011;10742;51.816;8.662;2022-09-16T09:53:21;7.25;;;1.75;;
21168;SDS011;10742;51.816;8.662;2022-09-16T09:56:32;7.03;;;1.63;;
21168;SDS011;10742;51.816;8.662;2022-09-16T10:02:46;9.07;;;1.50;;
21168;SDS011;10742;51.816;8.662;2022-09-16T10:05:50;5.40;;;1.50;;
21168;SDS011;10742;51.816;8.662;2022-09-16T10:08:53;8.60;;;1.40;;
21168;SDS011;10742;51.816;8.662;2022-09-16T10:11:58;5.07;;;1.50;;
21168;SDS011;10742;51.816;8.662;2022-09-16T10:15:02;3.70;;;1.27;;
21168;SDS011;10742;51.816;8.662;2022-09-16T10:18:11;10.00;;;2.00;;
21168;SDS011;10742;51.816;8.662;2022-09-16T10:21:15;6.72;;;1.48;;
21168;SDS011;10742;51.816;8.662;2022-09-16T10:24:30;5.30;;;1.48;;
21168;SDS011;10742;51.816;8.662;2022-09-16T10:27:35;6.47;;;1.33;;
21168;SDS011;10742;51.816;8.662;2022-09-16T10:30:43;8.85;;;1.40;;
21168;SDS011;10742;51.816;8.662;2022-09-16T10:33:52;4.28;;;1.30;;
21168;SDS011;10742;51.816;8.662;2022-09-16T10:36:59;10.43;;;1.60;;
21168;SDS011;10742;51.816;8.662;2022-09-16T10:40:22;6.55;;;1.30;;
21168;SDS011;10742;51.816;8.662;2022-09-16T10:43:26;5.53;;;1.23;;
21168;SDS011;10742;51.816;8.662;2022-09-16T10:46:32;10.45;;;1.35;;
21168;SDS011;10742;51.816;8.662;2022-09-16T10:52:46;8.48;;;1.60;;
21168;SDS011;10742;51.816;8.662;2022-09-16T10:55:58;7.07;;;1.55;;
21168;SDS011;10742;51.816;8.662;2022-09-16T10:59:08;9.18;;;1.40;;
21168;SDS011;10742;51.816;8.662;2022-09-16T11:02:27;11.05;;;1.42;;
21168;SDS011;10742;51.816;8.662;2022-09-16T11:09:14;3.92;;;1.08;;
21168;SDS011;10742;51.816;8.662;2022-09-16T11:12:37;5.47;;;1.05;;
21168;SDS011;10742;51.816;8.662;2022-09-16T11:19:30;3.90;;;1.27;;
21168;SDS011;10742;51.816;8.662;2022-09-16T11:23:07;5.90;;;1.25;;
21168;SDS011;10742;51.816;8.662;2022-09-16T11:43:05;4.45;;;1.42;;
21168;SDS011;10742;51.816;8.662;2022-09-16T11:46:22;2.17;;;0.77;;
21168;SDS011;10742;51.816;8.662;2022-09-16T11:49:33;8.45;;;1.63;;
21168;SDS011;10742;51.816;8.662;2022-09-16T11:59:48;5.47;;;1.58;;
21168;SDS011;10742;51.816;8.662;2022-09-16T12:02:58;6.18;;;1.35;;
21168;SDS011;10742;51.816;8.662;2022-09-16T12:06:14;7.57;;;1.40;;
21168;SDS011;10742;51.816;8.662;2022-09-16T12:09:24;5.65;;;1.58;;
21168;SDS011;10742;51.816;8.662;2022-09-16T12:12:48;8.32;;;1.58;;
21168;SDS011;10742;51.816;8.662;2022-09-16T12:15:55;2.35;;;0.90;;
21168;SDS011;10742;51.816;8.662;2022-09-16T12:19:02;4.95;;;1.17;;
21168;SDS011;10742;51.816;8.662;2022-09-16T12:22:30;3.38;;;1.25;;
21168;SDS011;10742;51.816;8.662;2022-09-16T12:26:04;8.27;;;1.33;;
21168;SDS011;10742;51.816;8.662;2022-09-16T12:32:30;8.93;;;1.38;;
21168;SDS011;10742;51.816;8.662;2022-09-16T12:35:40;5.53;;;1.52;;
21168;SDS011;10742;51.816;8.662;2022-09-16T12:38:57;8.70;;;1.55;;
21168;SDS011;10742;51.816;8.662;2022-09-16T12:42:22;3.70;;;1.20;;
21168;SDS011;10742;51.816;8.662;2022-09-16T12:45:59;9.18;;;1.55;;
21168;SDS011;10742;51.816;8.662;2022-09-16T13:00:12;10.23;;;1.63;;
21168;SDS011;10742;51.816;8.662;2022-09-16T13:03:20;5.50;;;1.50;;
21168;SDS011;10742;51.816;8.662;2022-09-16T13:06:28;4.30;;;1.50;;
21168;SDS011;10742;51.816;8.662;2022-09-16T13:09:35;4.83;;;1.60;;
21168;SDS011;10742;51.816;8.662;2022-09-16T13:12:41;2.50;;;1.97;;
21168;SDS011;10742;51.816;8.662;2022-09-16T13:15:54;4.03;;;1.73;;
21168;SDS011;10742;51.816;8.662;2022-09-16T13:22:28;6.23;;;2.20;;
21168;SDS011;10742;51.816;8.662;2022-09-16T13:25:42;4.53;;;1.60;;
21168;SDS011;10742;51.816;8.662;2022-09-16T13:28:52;4.27;;;1.73;;
21168;SDS011;10742;51.816;8.662;2022-09-16T13:31:57;2.77;;;1.63;;
21168;SDS011;10742;51.816;8.662;2022-09-16T13:47:38;5.57;;;1.27;;
21168;SDS011;10742;51.816;8.662;2022-09-16T13:50:59;8.13;;;1.20;;
21168;SDS011;10742;51.816;8.662;2022-09-16T13:54:21;11.27;;;1.90;;
21168;SDS011;10742;51.816;8.662;2022-09-16T14:00:56;5.03;;;1.20;;
21168;SDS011;10742;51.816;8.662;2022-09-16T14:04:26;5.20;;;1.20;;
21168;SDS011;10742;51.816;8.662;2022-09-16T14:11:16;6.20;;;1.30;;
21168;SDS011;10742;51.816;8.662;2022-09-16T14:14:32;6.93;;;1.33;;
21168;SDS011;10742;51.816;8.662;2022-09-16T14:17:47;5.87;;;1.37;;
21168;SDS011;10742;51.816;8.662;2022-09-16T14:21:01;7.67;;;1.43;;
21168;SDS011;10742;51.816;8.662;2022-09-16T14:24:19;2.77;;;1.00;;
21168;SDS011;10742;51.816;8.662;2022-09-16T14:27:28;4.53;;;1.27;;
21168;SDS011;10742;51.816;8.662;2022-09-16T14:30:34;5.43;;;1.13;;
21168;SDS011;10742;51.816;8.662;2022-09-16T14:33:39;5.13;;;1.23;;
21168;SDS011;10742;51.816;8.662;2022-09-16T14:36:45;6.90;;;1.50;;
21168;SDS011;10742;51.816;8.662;2022-09-16T14:39:48;7.73;;;1.50;;
21168;SDS011;10742;51.816;8.662;2022-09-16T14:43:00;6.73;;;1.67;;
21168;SDS011;10742;51.816;8.662;2022-09-16T14:46:05;5.60;;;1.40;;
21168;SDS011;10742;51.816;8.662;2022-09-16T14:49:09;3.77;;;1.33;;
21168;SDS011;10742;51.816;8.662;2022-09-16T14:52:18;10.80;;;1.20;;
21168;SDS011;10742;51.816;8.662;2022-09-16T14:55:25;3.13;;;1.43;;
21168;SDS011;10742;51.816;8.662;2022-09-16T14:58:31;6.30;;;1.60;;
21168;SDS011;10742;51.816;8.662;2022-09-16T15:01:35;6.73;;;1.47;;
21168;SDS011;10742;51.816;8.662;2022-09-16T15:04:41;7.10;;;1.30;;
21168;SDS011;10742;51.816;8.662;2022-09-16T15:07:46;4.27;;;1.23;;
21168;SDS011;10742;51.816;8.662;2022-09-16T15:11:05;5.43;;;1.20;;
21168;SDS011;10742;51.816;8.662;2022-09-16T15:14:20;9.27;;;1.40;;
21168;SDS011;10742;51.816;8.662;2022-09-16T15:17:23;5.23;;;1.30;;
21168;SDS011;10742;51.816;8.662;2022-09-16T15:20:32;4.03;;;1.13;;
21168;SDS011;10742;51.816;8.662;2022-09-16T15:23:38;6.67;;;1.23;;
21168;SDS011;10742;51.816;8.662;2022-09-16T15:26:43;6.97;;;1.23;;
21168;SDS011;10742;51.816;8.662;2022-09-16T15:29:48;6.27;;;1.60;;
21168;SDS011;10742;51.816;8.662;2022-09-16T15:32:56;6.10;;;1.30;;
21168;SDS011;10742;51.816;8.662;2022-09-16T15:35:59;4.87;;;1.50;;
21168;SDS011;10742;51.816;8.662;2022-09-16T15:39:03;6.53;;;1.00;;
21168;SDS011;10742;51.816;8.662;2022-09-16T15:45:17;8.10;;;1.87;;
21168;SDS011;10742;51.816;8.662;2022-09-16T15:48:20;3.17;;;1.43;;
21168;SDS011;10742;51.816;8.662;2022-09-16T15:51:26;7.93;;;3.33;;
21168;SDS011;10742;51.816;8.662;2022-09-16T15:54:37;5.17;;;2.43;;
21168;SDS011;10742;51.816;8.662;2022-09-16T15:57:48;7.70;;;2.10;;
21168;SDS011;10742;51.816;8.662;2022-09-16T16:04:06;1.47;;;1.30;;
21168;SDS011;10742;51.816;8.662;2022-09-16T16:07:11;3.77;;;2.27;;
21168;SDS011;10742;51.816;8.662;2022-09-16T16:13:18;4.77;;;1.57;;
21168;SDS011;10742;51.816;8.662;2022-09-16T16:16:20;8.57;;;2.00;;
21168;SDS011;10742;51.816;8.662;2022-09-16T16:19:24;3.43;;;2.10;;
21168;SDS011;10742;51.816;8.662;2022-09-16T16:22:27;2.83;;;1.57;;
21168;SDS011;10742;51.816;8.662;2022-09-16T16:25:30;3.83;;;1.97;;
21168;SDS011;10742;51.816;8.662;2022-09-16T16:28:33;4.27;;;1.87;;
21168;SDS011;10742;51.816;8.662;2022-09-16T16:31:35;3.50;;;1.83;;
21168;SDS011;10742;51.816;8.662;2022-09-16T16:34:40;6.63;;;2.00;;
21168;SDS011;10742;51.816;8.662;2022-09-16T16:37:44;4.60;;;2.07;;
21168;SDS011;10742;51.816;8.662;2022-09-16T16:40:49;7.63;;;1.70;;
21168;SDS011;10742;51.816;8.662;2022-09-16T16:43:51;6.10;;;2.30;;
21168;SDS011;10742;51.816;8.662;2022-09-16T16:46:54;10.07;;;1.90;;
21168;SDS011;10742;51.816;8.662;2022-09-16T16:49:57;3.93;;;1.63;;
21168;SDS011;10742;51.816;8.662;2022-09-16T16:53:01;7.47;;;1.57;;
21168;SDS011;10742;51.816;8.662;2022-09-16T16:59:08;9.03;;;1.80;;
21168;SDS011;10742;51.816;8.662;2022-09-16T17:02:11;4.40;;;1.50;;
21168;SDS011;10742;51.816;8.662;2022-09-16T17:05:15;10.23;;;2.33;;
21168;SDS011;10742;51.816;8.662;2022-09-16T17:08:19;4.73;;;1.60;;
21168;SDS011;10742;51.816;8.662;2022-09-16T17:11:21;9.27;;;1.87;;
21168;SDS011;10742;51.816;8.662;2022-09-16T17:14:26;8.90;;;2.03;;
21168;SDS011;10742;51.816;8.662;2022-09-16T17:17:29;8.43;;;1.70;;
21168;SDS011;10742;51.816;8.662;2022-09-16T17:20:32;3.20;;;1.47;;
21168;SDS011;10742;51.816;8.662;2022-09-16T17:23:35;6.70;;;1.70;;
21168;SDS011;10742;51.816;8.662;2022-09-16T17:26:37;11.63;;;2.87;;
21168;SDS011;10742;51.816;8.662;2022-09-16T17:29:40;12.87;;;2.60;;
21168;SDS011;10742;51.816;8.662;2022-09-16T17:32:42;8.67;;;2.03;;
21168;SDS011;10742;51.816;8.662;2022-09-16T17:35:45;9.40;;;2.70;;
21168;SDS011;10742;51.816;8.662;2022-09-16T17:38:48;4.33;;;1.50;;
21168;SDS011;10742;51.816;8.662;2022-09-16T17:42:00;5.73;;;2.03;;
21168;SDS011;10742;51.816;8.662;2022-09-16T17:45:02;8.57;;;2.13;;
21168;SDS011;10742;51.816;8.662;2022-09-16T17:48:07;15.77;;;3.80;;
21168;SDS011;10742;51.816;8.662;2022-09-16T17:51:09;8.73;;;2.67;;
21168;SDS011;10742;51.816;8.662;2022-09-16T17:54:12;5.77;;;2.10;;
21168;SDS011;10742;51.816;8.662;2022-09-16T17:57:15;7.37;;;2.73;;
21168;SDS011;10742;51.816;8.662;2022-09-16T18:00:18;10.87;;;2.80;;
21168;SDS011;10742;51.816;8.662;2022-09-16T18:03:22;16.13;;;3.20;;
21168;SDS011;10742;51.816;8.662;2022-09-16T18:06:25;11.77;;;3.80;;
21168;SDS011;10742;51.816;8.662;2022-09-16T18:09:36;6.30;;;2.40;;
21168;SDS011;10742;51.816;8.662;2022-09-16T18:12:38;9.70;;;2.30;;
21168;SDS011;10742;51.816;8.662;2022-09-16T18:15:41;8.63;;;2.73;;
21168;SDS011;10742;51.816;8.662;2022-09-16T18:18:43;11.27;;;2.67;;
21168;SDS011;10742;51.816;8.662;2022-09-16T18:21:48;9.00;;;2.47;;
21168;SDS011;10742;51.816;8.662;2022-09-16T18:24:50;9.50;;;3.27;;
21168;SDS011;10742;51.816;8.662;2022-09-16T18:27:52;7.97;;;2.43;;
21168;SDS011;10742;51.816;8.662;2022-09-16T18:31:01;10.17;;;2.60;;
21168;SDS011;10742;51.816;8.662;2022-09-16T18:34:07;12.13;;;1.93;;
21168;SDS011;10742;51.816;8.662;2022-09-16T18:37:11;6.63;;;2.40;;
21168;SDS011;10742;51.816;8.662;2022-09-16T18:40:15;6.07;;;1.70;;
21168;SDS011;10742;51.816;8.662;2022-09-16T18:43:18;7.30;;;1.43;;
21168;SDS011;10742;51.816;8.662;2022-09-16T18:46:24;8.67;;;2.00;;
21168;SDS011;10742;51.816;8.662;2022-09-16T18:49:28;8.33;;;3.17;;
21168;SDS011;10742;51.816;8.662;2022-09-16T18:52:30;8.17;;;2.20;;
21168;SDS011;10742;51.816;8.662;2022-09-16T18:55:33;10.23;;;2.40;;
21168;SDS011;10742;51.816;8.662;2022-09-16T18:58:35;6.37;;;2.33;;
21168;SDS011;10742;51.816;8.662;2022-09-16T19:01:39;12.57;;;2.00;;
21168;SDS011;10742;51.816;8.662;2022-09-16T19:04:42;9.50;;;1.90;;
21168;SDS011;10742;51.816;8.662;2022-09-16T19:07:44;11.63;;;1.87;;
21168;SDS011;10742;51.816;8.662;2022-09-16T19:10:48;10.90;;;2.20;;
21168;SDS011;10742;51.816;8.662;2022-09-16T19:13:51;11.37;;;2.93;;
21168;SDS011;10742;51.816;8.662;2022-09-16T19:16:53;9.43;;;1.70;;
21168;SDS011;10742;51.816;8.662;2022-09-16T19:19:56;9.07;;;2.10;;
21168;SDS011;10742;51.816;8.662;2022-09-16T19:22:58;8.20;;;1.90;;
21168;SDS011;10742;51.816;8.662;2022-09-16T19:26:01;9.73;;;2.10;;
21168;SDS011;10742;51.816;8.662;2022-09-16T19:29:06;9.90;;;2.67;;
21168;SDS011;10742;51.816;8.662;2022-09-16T19:32:09;7.03;;;2.13;;
21168;SDS011;10742;51.816;8.662;2022-09-16T19:35:12;9.90;;;2.07;;
21168;SDS011;10742;51.816;8.662;2022-09-16T19:38:16;11.53;;;2.30;;
21168;SDS011;10742;51.816;8.662;2022-09-16T19:41:23;9.47;;;2.30;;
21168;SDS011;10742;51.816;8.662;2022-09-16T19:44:28;5.80;;;2.20;;
21168;SDS011;10742;51.816;8.662;2022-09-16T19:47:32;8.37;;;2.03;;
21168;SDS011;10742;51.816;8.662;2022-09-16T19:50:35;10.30;;;2.80;;
21168;SDS011;10742;51.816;8.662;2022-09-16T19:53:38;5.03;;;1.80;;
21168;SDS011;10742;51.816;8.662;2022-09-16T19:56:42;9.67;;;2.10;;
21168;SDS011;10742;51.816;8.662;2022-09-16T19:59:48;13.17;;;2.60;;
21168;SDS011;10742;51.816;8.662;2022-09-16T20:02:50;9.03;;;3.03;;
21168;SDS011;10742;51.816;8.662;2022-09-16T20:06:01;9.33;;;2.60;;
21168;SDS011;10742;51.816;8.662;2022-09-16T20:09:08;11.77;;;2.83;;
21168;SDS011;10742;51.816;8.662;2022-09-16T20:12:14;10.13;;;2.97;;
21168;SDS011;10742;51.816;8.662;2022-09-16T20:15:17;10.00;;;2.93;;
21168;SDS011;10742;51.816;8.662;2022-09-16T20:18:20;5.57;;;2.40;;
21168;SDS011;10742;51.816;8.662;2022-09-16T20:21:24;8.37;;;2.80;;
21168;SDS011;10742;51.816;8.662;2022-09-16T20:24:28;8.17;;;2.57;;
21168;SDS011;10742;51.816;8.662;2022-09-16T20:27:30;4.87;;;2.40;;
21168;SDS011;10742;51.816;8.662;2022-09-16T20:30:34;7.20;;;3.80;;
21168;SDS011;10742;51.816;8.662;2022-09-16T20:33:36;8.53;;;3.10;;
21168;SDS011;10742;51.816;8.662;2022-09-16T20:36:41;11.53;;;3.57;;
21168;SDS011;10742;51.816;8.662;2022-09-16T20:39:45;6.40;;;2.87;;
21168;SDS011;10742;51.816;8.662;2022-09-16T20:42:48;6.90;;;3.23;;